Terminal Aerodrome Forecast
Issued by NWS

Home | Current Version | Previous Version | Text Only | Print | Product List | Glossary On
Versions: 1 2 3 4 5 6 7 8 9 10 11 12 13 14 15 16 17 18 19 20 21 22 23 24 25 26 27 28 29 30 31 32 33 34
000
FTAK31 PAFA 031740
TAFAOT
TAF
PAOT 031740Z 0318/0418 12019KT 1 1/2SM -SN BLSN OVC019
     FM032100 28015KT 4SM -SN BR BKN015 OVC050
     FM040300 30010KT P6SM VCSH SCT015 BKN050 OVC100
     FM041000 31005KT P6SM VCSH FEW015 SCT050 OVC100=

USA.gov is the U.S. government's official web portal to all federal, state and local government web resources and services.